Time;durP1;ratioP1;P1;durP2;ratioP2;P2;SDS_P1;SDS_P2;PMS_P1;PMS_P2;Temp;Humidity;BMP_temperature;BMP_pressure;BME280_temperature;BME280_humidity;BME280_pressure;Samples;Min_cycle;Max_cycle;Signal;HPM_P1;HPM_P2
2023/04/30 00:00:46;;;;;;;0.00;0.00;;;;;;;;;;1738448;28;20253;-76
2023/04/30 00:01:37;;;;;;;0.00;0.00;;;;;;;;;;1736921;28;20212;-77
2023/04/30 00:02:29;;;;;;;0.00;0.00;;;;;;;;;;1737973;28;20200;-77
2023/04/30 00:03:20;;;;;;;0.00;0.00;;;;;;;;;;1736633;28;20226;-76
2023/04/30 00:04:12;;;;;;;0.00;0.00;;;;;;;;;;1740897;28;20257;-76
2023/04/30 00:05:03;;;;;;;0.00;0.00;;;;;;;;;;1739388;28;20213;-76
2023/04/30 00:05:55;;;;;;;0.00;0.00;;;;;;;;;;1736317;28;20274;-76
2023/04/30 00:06:46;;;;;;;0.00;0.00;;;;;;;;;;1738577;28;20276;-76
2023/04/30 00:07:41;;;;;;;0.00;0.00;;;;;;;;;;1737999;28;20219;-76
2023/04/30 00:08:32;;;;;;;0.00;0.00;;;;;;;;;;1738005;28;20211;-76
2023/04/30 00:09:24;;;;;;;0.00;0.00;;;;;;;;;;1738311;28;20246;-76
2023/04/30 00:10:15;;;;;;;0.00;0.00;;;;;;;;;;1736831;28;20200;-76
2023/04/30 00:11:08;;;;;;;0.00;0.00;;;;;;;;;;1738955;28;20389;-76
2023/04/30 00:11:59;;;;;;;0.00;0.00;;;;;;;;;;1734611;28;20782;-76
2023/04/30 00:12:51;;;;;;;0.00;0.00;;;;;;;;;;1737132;28;20683;-76
2023/04/30 00:13:42;;;;;;;0.00;0.00;;;;;;;;;;1739000;28;20212;-76
2023/04/30 00:14:35;;;;;;;0.00;0.00;;;;;;;;;;1739858;28;20263;-76
2023/04/30 00:15:26;;;;;;;0.00;0.00;;;;;;;;;;1736738;28;20296;-76
2023/04/30 00:16:17;;;;;;;0.00;0.00;;;;;;;;;;1738359;28;20210;-76
2023/04/30 00:17:09;;;;;;;0.00;0.00;;;;;;;;;;1738118;28;20217;-77
2023/04/30 00:18:00;;;;;;;0.00;0.00;;;;;;;;;;1738538;28;20208;-77
2023/04/30 00:18:52;;;;;;;0.00;0.00;;;;;;;;;;1738178;28;20211;-76
2023/04/30 00:19:43;;;;;;;0.00;0.00;;;;;;;;;;1738762;28;20632;-76
2023/04/30 00:20:35;;;;;;;0.00;0.00;;;;;;;;;;1736455;28;20527;-76
2023/04/30 00:21:26;;;;;;;0.00;0.00;;;;;;;;;;1736106;28;20199;-76
2023/04/30 00:22:18;;;;;;;0.00;0.00;;;;;;;;;;1736380;28;20217;-76
2023/04/30 00:23:10;;;;;;;0.00;0.00;;;;;;;;;;1738538;28;20582;-76
2023/04/30 00:24:02;;;;;;;0.00;0.00;;;;;;;;;;1738299;28;20203;-77
2023/04/30 00:24:53;;;;;;;0.00;0.00;;;;;;;;;;1732368;28;20314;-76
2023/04/30 00:25:45;;;;;;;0.00;0.00;;;;;;;;;;1736202;28;20244;-76
2023/04/30 00:26:38;;;;;;;0.00;0.00;;;;;;;;;;1735415;28;20606;-76
2023/04/30 00:27:30;;;;;;;0.00;0.00;;;;;;;;;;1739386;28;20661;-76
2023/04/30 00:28:21;;;;;;;0.00;0.00;;;;;;;;;;1738389;28;20220;-76
2023/04/30 00:29:13;;;;;;;0.00;0.00;;;;;;;;;;1739579;28;20230;-76
2023/04/30 00:30:05;;;;;;;0.00;0.00;;;;;;;;;;1739345;28;20351;-76
2023/04/30 00:30:56;;;;;;;0.00;0.00;;;;;;;;;;1739896;28;20519;-76
2023/04/30 00:31:48;;;;;;;0.00;0.00;;;;;;;;;;1739680;28;20295;-76
2023/04/30 00:32:39;;;;;;;0.00;0.00;;;;;;;;;;1738095;28;20656;-76
2023/04/30 00:33:30;;;;;;;0.00;0.00;;;;;;;;;;1738779;28;20220;-76
2023/04/30 00:34:22;;;;;;;0.00;0.00;;;;;;;;;;1738617;28;20206;-76
2023/04/30 00:35:14;;;;;;;0.00;0.00;;;;;;;;;;1738197;28;20208;-77
2023/04/30 00:36:06;;;;;;;0.00;0.00;;;;;;;;;;1740301;28;20220;-76
2023/04/30 00:36:57;;;;;;;0.00;0.00;;;;;;;;;;1739519;28;20617;-76
2023/04/30 00:37:49;;;;;;;0.00;0.00;;;;;;;;;;1739846;28;20284;-76
2023/04/30 00:38:40;;;;;;;0.00;0.00;;;;;;;;;;1739016;28;20250;-75
2023/04/30 00:39:32;;;;;;;0.00;0.00;;;;;;;;;;1739850;28;20215;-76
2023/04/30 00:40:23;;;;;;;0.00;0.00;;;;;;;;;;1737831;28;20603;-76
2023/04/30 00:41:15;;;;;;;0.00;0.00;;;;;;;;;;1739602;28;20195;-76
2023/04/30 00:42:07;;;;;;;0.00;0.00;;;;;;;;;;1739968;28;20268;-76
2023/04/30 00:42:59;;;;;;;0.00;0.00;;;;;;;;;;1739011;28;20207;-77
2023/04/30 00:43:50;;;;;;;0.00;0.00;;;;;;;;;;1740447;28;20314;-76
2023/04/30 00:44:42;;;;;;;0.00;0.00;;;;;;;;;;1741416;28;20216;-76
2023/04/30 00:45:33;;;;;;;0.00;0.00;;;;;;;;;;1738028;28;20235;-76
2023/04/30 00:46:25;;;;;;;0.00;0.00;;;;;;;;;;1739979;28;20199;-76
2023/04/30 00:47:16;;;;;;;0.00;0.00;;;;;;;;;;1739090;28;20349;-76
2023/04/30 00:48:08;;;;;;;0.00;0.00;;;;;;;;;;1740140;28;20302;-76
2023/04/30 00:49:03;;;;;;;0.00;0.00;;;;;;;;;;1739803;28;20517;-76
2023/04/30 00:49:55;;;;;;;0.00;0.00;;;;;;;;;;1740434;28;20544;-76
2023/04/30 00:50:46;;;;;;;0.00;0.00;;;;;;;;;;1737847;28;20311;-76
2023/04/30 00:51:41;;;;;;;0.00;0.00;;;;;;;;;;1739578;28;20216;-76
2023/04/30 00:52:32;;;;;;;0.00;0.00;;;;;;;;;;1738045;28;20496;-76
2023/04/30 00:53:24;;;;;;;0.00;0.00;;;;;;;;;;1739208;28;20669;-76
2023/04/30 00:54:15;;;;;;;0.00;0.00;;;;;;;;;;1739471;28;20293;-76
2023/04/30 00:55:07;;;;;;;0.10;0.10;;;;;;;;;;1740517;28;20282;-76
2023/04/30 00:55:58;;;;;;;0.00;0.00;;;;;;;;;;1737717;28;20304;-76
2023/04/30 00:56:50;;;;;;;0.00;0.00;;;;;;;;;;1739517;28;20238;-77
2023/04/30 00:57:43;;;;;;;0.00;0.00;;;;;;;;;;1739345;28;20211;-76
2023/04/30 00:58:35;;;;;;;0.00;0.00;;;;;;;;;;1739358;28;20303;-76
2023/04/30 00:59:28;;;;;;;0.00;0.00;;;;;;;;;;1739454;28;20204;-77
2023/04/30 01:00:20;;;;;;;0.00;0.00;;;;;;;;;;1737504;28;20245;-77
2023/04/30 01:01:12;;;;;;;0.00;0.00;;;;;;;;;;1743921;28;20199;-76
2023/04/30 01:02:04;;;;;;;0.00;0.00;;;;;;;;;;1739372;28;20210;-77
2023/04/30 01:02:55;;;;;;;0.00;0.00;;;;;;;;;;1739637;28;20284;-76
2023/04/30 01:03:46;;;;;;;0.00;0.00;;;;;;;;;;1740267;28;20573;-76
2023/04/30 01:04:38;;;;;;;0.00;0.00;;;;;;;;;;1741382;28;20679;-77
2023/04/30 01:05:29;;;;;;;0.00;0.00;;;;;;;;;;1737873;28;20349;-76
2023/04/30 01:06:22;;;;;;;0.10;0.10;;;;;;;;;;1739506;28;20199;-76
2023/04/30 01:07:13;;;;;;;0.00;0.00;;;;;;;;;;1739213;28;20788;-76
2023/04/30 01:08:05;;;;;;;0.03;0.03;;;;;;;;;;1739833;28;20199;-76
2023/04/30 01:08:56;;;;;;;0.00;0.00;;;;;;;;;;1739003;28;20211;-76
2023/04/30 01:09:48;;;;;;;0.00;0.00;;;;;;;;;;1739568;28;20219;-76
2023/04/30 01:10:41;;;;;;;0.00;0.00;;;;;;;;;;1737837;28;20809;-77
2023/04/30 01:11:36;;;;;;;0.00;0.00;;;;;;;;;;1740333;28;20212;-76
2023/04/30 01:12:30;;;;;;;0.00;0.00;;;;;;;;;;1739071;28;20591;-76
2023/04/30 01:13:29;;;;;;;0.10;0.10;;;;;;;;;;1739214;28;20214;-77
2023/04/30 01:14:24;;;;;;;0.00;0.00;;;;;;;;;;1740855;28;20199;-76
2023/04/30 01:15:23;;;;;;;0.00;0.00;;;;;;;;;;1737473;28;20626;-77
2023/04/30 01:16:18;;;;;;;0.00;0.00;;;;;;;;;;1739632;28;20207;-76
2023/04/30 01:17:13;;;;;;;0.00;0.00;;;;;;;;;;1739586;28;20199;-76
2023/04/30 01:18:07;;;;;;;0.00;0.00;;;;;;;;;;1739570;28;20550;-77
2023/04/30 01:19:01;;;;;;;0.10;0.10;;;;;;;;;;1739361;28;20222;-76
2023/04/30 01:19:52;;;;;;;0.00;0.00;;;;;;;;;;1739865;28;20211;-76
2023/04/30 01:20:46;;;;;;;0.00;0.00;;;;;;;;;;1737647;28;20245;-76
2023/04/30 01:21:40;;;;;;;0.00;0.00;;;;;;;;;;1739844;28;20272;-76
2023/04/30 01:22:37;;;;;;;0.00;0.00;;;;;;;;;;1739221;28;20216;-76
2023/04/30 01:23:37;;;;;;;0.00;0.00;;;;;;;;;;1739767;28;20198;-76
2023/04/30 01:24:48;;;;;;;0.00;0.00;;;;;;;;;;1739405;28;20517;-76
2023/04/30 01:25:44;;;;;;;0.00;0.00;;;;;;;;;;1738084;28;20288;-76
2023/04/30 01:26:45;;;;;;;0.00;0.00;;;;;;;;;;1736917;28;20645;-76
2023/04/30 01:27:51;;;;;;;0.00;0.00;;;;;;;;;;1739314;28;20645;-76
2023/04/30 01:28:46;;;;;;;0.00;0.00;;;;;;;;;;1739381;28;20251;-75
2023/04/30 01:29:39;;;;;;;0.08;0.08;;;;;;;;;;1740126;28;20535;-75
2023/04/30 01:30:30;;;;;;;0.00;0.00;;;;;;;;;;1738143;28;26641;-75
2023/04/30 01:31:24;;;;;;;0.00;0.00;;;;;;;;;;1739648;28;20210;-75
2023/04/30 01:32:15;;;;;;;0.00;0.00;;;;;;;;;;1739514;28;20211;-75
2023/04/30 01:33:07;;;;;;;0.00;0.00;;;;;;;;;;1739921;28;20199;-75
2023/04/30 01:33:58;;;;;;;0.00;0.00;;;;;;;;;;1739324;28;20250;-75
2023/04/30 01:34:50;;;;;;;0.00;0.00;;;;;;;;;;1738366;28;20218;-75
2023/04/30 01:35:48;;;;;;;0.00;0.00;;;;;;;;;;1737779;28;20296;-76
2023/04/30 01:36:46;;;;;;;0.00;0.00;;;;;;;;;;1739902;28;20215;-75
2023/04/30 01:37:41;;;;;;;0.00;0.00;;;;;;;;;;1739297;28;20208;-76
2023/04/30 01:38:37;;;;;;;0.00;0.00;;;;;;;;;;1738723;28;20201;-75
2023/04/30 01:39:34;;;;;;;0.00;0.00;;;;;;;;;;1741246;28;20198;-76
2023/04/30 01:40:29;;;;;;;0.00;0.00;;;;;;;;;;1737772;28;20277;-76
2023/04/30 01:41:23;;;;;;;0.00;0.00;;;;;;;;;;1739632;28;20214;-76
2023/04/30 01:42:18;;;;;;;0.00;0.00;;;;;;;;;;1739311;28;20208;-75
2023/04/30 01:43:12;;;;;;;0.00;0.00;;;;;;;;;;1739911;28;20199;-76
2023/04/30 01:44:17;;;;;;;0.00;0.00;;;;;;;;;;1738568;28;20260;-76
2023/04/30 01:45:16;;;;;;;0.00;0.00;;;;;;;;;;1733414;28;20219;-76
2023/04/30 01:46:12;;;;;;;0.00;0.00;;;;;;;;;;1737972;28;20308;-76
2023/04/30 01:47:06;;;;;;;0.00;0.00;;;;;;;;;;1736223;28;20306;-76
2023/04/30 01:48:05;;;;;;;0.00;0.00;;;;;;;;;;1738617;28;20265;-76
2023/04/30 01:49:04;;;;;;;0.00;0.00;;;;;;;;;;1739138;28;20239;-76
2023/04/30 01:50:02;;;;;;;0.00;0.00;;;;;;;;;;1738535;28;20219;-76
2023/04/30 01:50:57;;;;;;;0.00;0.00;;;;;;;;;;1737502;28;20230;-76
2023/04/30 01:51:54;;;;;;;0.00;0.00;;;;;;;;;;1735304;28;20208;-76
2023/04/30 01:52:47;;;;;;;0.00;0.00;;;;;;;;;;1738347;28;20208;-76
2023/04/30 01:53:40;;;;;;;0.00;0.00;;;;;;;;;;1738675;28;20299;-76
2023/04/30 01:54:35;;;;;;;0.00;0.00;;;;;;;;;;1736623;28;20210;-76
2023/04/30 01:55:27;;;;;;;0.00;0.00;;;;;;;;;;1734536;28;20226;-76
2023/04/30 01:56:25;;;;;;;0.00;0.00;;;;;;;;;;1739147;28;20621;-75
2023/04/30 01:57:20;;;;;;;0.10;0.10;;;;;;;;;;1738881;28;20234;-76
2023/04/30 01:58:13;;;;;;;0.00;0.00;;;;;;;;;;1739310;28;20660;-76
2023/04/30 01:59:05;;;;;;;0.00;0.00;;;;;;;;;;1738929;28;20294;-76
2023/04/30 01:59:58;;;;;;;0.00;0.00;;;;;;;;;;1739239;28;20203;-76
2023/04/30 02:00:50;;;;;;;0.00;0.00;;;;;;;;;;1735730;28;20238;-76
2023/04/30 02:01:42;;;;;;;0.00;0.00;;;;;;;;;;1739118;28;20207;-76
2023/04/30 02:02:33;;;;;;;0.00;0.00;;;;;;;;;;1738980;28;20691;-76
2023/04/30 02:03:25;;;;;;;0.00;0.00;;;;;;;;;;1739199;28;20199;-76
2023/04/30 02:04:16;;;;;;;0.00;0.00;;;;;;;;;;1740633;28;20207;-76
2023/04/30 02:05:08;;;;;;;0.00;0.00;;;;;;;;;;1734244;28;20311;-76
2023/04/30 02:06:00;;;;;;;0.00;0.00;;;;;;;;;;1737364;28;20576;-76
2023/04/30 02:06:51;;;;;;;0.00;0.00;;;;;;;;;;1738962;28;20223;-76
2023/04/30 02:07:44;;;;;;;0.00;0.00;;;;;;;;;;1739372;28;20199;-76
2023/04/30 02:08:35;;;;;;;0.00;0.00;;;;;;;;;;1739097;28;20245;-77
2023/04/30 02:09:27;;;;;;;0.00;0.00;;;;;;;;;;1732521;28;20224;-77
2023/04/30 02:10:18;;;;;;;0.00;0.00;;;;;;;;;;1730289;28;20288;-77
2023/04/30 02:11:11;;;;;;;0.00;0.00;;;;;;;;;;1732860;28;20199;-77
2023/04/30 02:12:02;;;;;;;0.00;0.00;;;;;;;;;;1732036;28;20216;-76
2023/04/30 02:12:54;;;;;;;0.00;0.00;;;;;;;;;;1731784;28;20682;-77
2023/04/30 02:13:45;;;;;;;0.00;0.00;;;;;;;;;;1732345;28;20273;-76
2023/04/30 02:14:37;;;;;;;0.00;0.00;;;;;;;;;;1727571;28;20215;-76
2023/04/30 02:15:30;;;;;;;0.00;0.00;;;;;;;;;;1727404;28;20247;-76
2023/04/30 02:16:22;;;;;;;0.00;0.00;;;;;;;;;;1732415;28;20200;-76
2023/04/30 02:17:13;;;;;;;0.00;0.00;;;;;;;;;;1731629;28;20200;-77
2023/04/30 02:18:05;;;;;;;0.00;0.00;;;;;;;;;;1732689;28;20265;-77
2023/04/30 02:18:56;;;;;;;0.00;0.00;;;;;;;;;;1731701;28;20799;-76
2023/04/30 02:19:47;;;;;;;0.00;0.00;;;;;;;;;;1727737;28;20204;-76
2023/04/30 02:20:39;;;;;;;0.00;0.00;;;;;;;;;;1728625;28;20238;-76
2023/04/30 02:21:30;;;;;;;0.00;0.00;;;;;;;;;;1727919;28;20224;-76
2023/04/30 02:22:22;;;;;;;0.00;0.00;;;;;;;;;;1731731;28;20629;-76
2023/04/30 02:23:13;;;;;;;0.00;0.00;;;;;;;;;;1731965;28;20641;-75
2023/04/30 02:24:06;;;;;;;0.00;0.00;;;;;;;;;;1732219;28;20261;-76
2023/04/30 02:24:57;;;;;;;0.00;0.00;;;;;;;;;;1726192;28;20221;-76
2023/04/30 02:25:49;;;;;;;0.00;0.00;;;;;;;;;;1729381;28;20751;-76
2023/04/30 02:26:40;;;;;;;0.00;0.00;;;;;;;;;;1728922;28;20531;-76
2023/04/30 02:27:33;;;;;;;0.00;0.00;;;;;;;;;;1731665;28;20282;-75
2023/04/30 02:28:24;;;;;;;0.00;0.00;;;;;;;;;;1732208;28;20658;-75
2023/04/30 02:29:16;;;;;;;0.00;0.00;;;;;;;;;;1729621;28;20656;-76
2023/04/30 02:30:07;;;;;;;0.00;0.00;;;;;;;;;;1732116;28;20874;-76
2023/04/30 02:31:01;;;;;;;0.00;0.00;;;;;;;;;;1728069;28;20295;-76
2023/04/30 02:31:52;;;;;;;0.00;0.00;;;;;;;;;;1730180;28;20261;-76
2023/04/30 02:32:44;;;;;;;0.00;0.00;;;;;;;;;;1732086;28;20609;-76
2023/04/30 02:33:35;;;;;;;0.00;0.00;;;;;;;;;;1731156;28;20208;-76
2023/04/30 02:34:27;;;;;;;0.00;0.00;;;;;;;;;;1730014;28;20216;-76
2023/04/30 02:35:18;;;;;;;0.00;0.00;;;;;;;;;;1729846;28;20216;-76
2023/04/30 02:36:10;;;;;;;0.03;0.03;;;;;;;;;;1732507;28;20223;-76
2023/04/30 02:37:01;;;;;;;0.00;0.00;;;;;;;;;;1731850;28;20235;-76
2023/04/30 02:37:53;;;;;;;0.00;0.00;;;;;;;;;;1731853;28;20717;-76
2023/04/30 02:38:45;;;;;;;0.00;0.00;;;;;;;;;;1730499;28;20208;-76
2023/04/30 02:39:37;;;;;;;0.00;0.00;;;;;;;;;;1729714;28;20677;-76
2023/04/30 02:40:28;;;;;;;0.00;0.00;;;;;;;;;;1729700;28;25275;-76
2023/04/30 02:41:20;;;;;;;0.00;0.00;;;;;;;;;;1732089;28;20282;-76
2023/04/30 02:42:11;;;;;;;0.00;0.00;;;;;;;;;;1731884;28;20565;-76
2023/04/30 02:43:05;;;;;;;0.00;0.00;;;;;;;;;;1732280;28;20689;-76
2023/04/30 02:43:56;;;;;;;0.00;0.00;;;;;;;;;;1729852;28;20638;-75
2023/04/30 02:44:48;;;;;;;0.00;0.00;;;;;;;;;;1732382;28;20219;-75
2023/04/30 02:45:40;;;;;;;0.00;0.00;;;;;;;;;;1730182;28;20236;-76
2023/04/30 02:46:33;;;;;;;0.00;0.00;;;;;;;;;;1729738;28;20277;-76
2023/04/30 02:47:24;;;;;;;0.10;0.10;;;;;;;;;;1730055;28;20216;-76
2023/04/30 02:48:16;;;;;;;0.00;0.00;;;;;;;;;;1732127;28;20594;-76
2023/04/30 02:49:07;;;;;;;0.00;0.00;;;;;;;;;;1732068;28;20205;-76
2023/04/30 02:49:59;;;;;;;0.03;0.03;;;;;;;;;;1726133;28;20235;-76
2023/04/30 02:50:50;;;;;;;0.00;0.00;;;;;;;;;;1727036;28;20235;-75
2023/04/30 02:51:42;;;;;;;0.00;0.00;;;;;;;;;;1725564;28;20204;-75
2023/04/30 02:52:33;;;;;;;0.00;0.00;;;;;;;;;;1730398;28;20308;-75
2023/04/30 02:53:25;;;;;;;0.00;0.00;;;;;;;;;;1731175;28;20607;-75
2023/04/30 02:54:16;;;;;;;0.00;0.00;;;;;;;;;;1729357;28;20261;-75
2023/04/30 02:55:08;;;;;;;0.00;0.00;;;;;;;;;;1726607;28;20216;-75
2023/04/30 02:56:00;;;;;;;0.00;0.00;;;;;;;;;;1730265;28;20232;-75
2023/04/30 02:56:52;;;;;;;0.00;0.00;;;;;;;;;;1731416;28;20200;-75
2023/04/30 02:57:43;;;;;;;0.00;0.00;;;;;;;;;;1731861;28;20289;-75
2023/04/30 02:58:35;;;;;;;0.00;0.00;;;;;;;;;;1730995;28;20648;-75
2023/04/30 02:59:26;;;;;;;0.00;0.00;;;;;;;;;;1728190;28;20444;-75
2023/04/30 03:00:18;;;;;;;0.00;0.00;;;;;;;;;;1725005;28;20259;-76
2023/04/30 03:01:09;;;;;;;0.00;0.00;;;;;;;;;;1727194;28;20201;-76
2023/04/30 03:02:02;;;;;;;0.00;0.00;;;;;;;;;;1731113;28;20290;-76
2023/04/30 03:02:53;;;;;;;0.00;0.00;;;;;;;;;;1731794;28;20281;-76
2023/04/30 03:03:45;;;;;;;0.00;0.00;;;;;;;;;;1730995;28;20203;-76
2023/04/30 03:04:36;;;;;;;0.00;0.00;;;;;;;;;;1727069;28;20624;-76
2023/04/30 03:05:28;;;;;;;0.00;0.00;;;;;;;;;;1725515;28;20845;-76
2023/04/30 03:06:19;;;;;;;0.00;0.00;;;;;;;;;;1727195;28;20645;-76
2023/04/30 03:07:11;;;;;;;0.00;0.00;;;;;;;;;;1731816;28;20204;-76
2023/04/30 03:08:02;;;;;;;0.00;0.00;;;;;;;;;;1731527;28;20204;-76
2023/04/30 03:08:54;;;;;;;0.00;0.00;;;;;;;;;;1731155;28;20689;-76
2023/04/30 03:09:46;;;;;;;0.00;0.00;;;;;;;;;;1734760;28;20212;-76
2023/04/30 03:10:37;;;;;;;0.00;0.00;;;;;;;;;;1734094;28;20314;-76
2023/04/30 03:11:29;;;;;;;0.10;0.10;;;;;;;;;;1741741;28;20248;-76
2023/04/30 03:12:20;;;;;;;0.00;0.00;;;;;;;;;;1736742;28;20199;-76
2023/04/30 03:13:12;;;;;;;0.00;0.00;;;;;;;;;;1739158;28;20281;-76
2023/04/30 03:14:04;;;;;;;0.00;0.00;;;;;;;;;;1738525;28;21208;-75
2023/04/30 03:14:55;;;;;;;0.00;0.00;;;;;;;;;;1734874;28;20211;-76
2023/04/30 03:15:47;;;;;;;0.00;0.00;;;;;;;;;;1735999;28;20233;-76
2023/04/30 03:16:38;;;;;;;0.00;0.00;;;;;;;;;;1742805;28;20643;-76
2023/04/30 03:17:31;;;;;;;0.00;0.00;;;;;;;;;;1737604;28;20207;-76
2023/04/30 03:18:22;;;;;;;0.00;0.00;;;;;;;;;;1738700;28;20208;-76
2023/04/30 03:19:14;;;;;;;0.00;0.00;;;;;;;;;;1738889;28;20569;-76
2023/04/30 03:20:06;;;;;;;0.00;0.00;;;;;;;;;;1732908;28;20699;-76
2023/04/30 03:20:58;;;;;;;0.00;0.00;;;;;;;;;;1738176;28;20227;-76
2023/04/30 03:21:49;;;;;;;0.10;0.10;;;;;;;;;;1740829;28;20660;-76
2023/04/30 03:22:41;;;;;;;0.00;0.00;;;;;;;;;;1738039;28;20214;-76
2023/04/30 03:23:32;;;;;;;0.00;0.00;;;;;;;;;;1737556;28;20302;-76
2023/04/30 03:24:24;;;;;;;0.00;0.00;;;;;;;;;;1740933;28;20221;-76
2023/04/30 03:25:16;;;;;;;0.00;0.00;;;;;;;;;;1737249;28;20203;-75
2023/04/30 03:26:08;;;;;;;0.00;0.00;;;;;;;;;;1737993;28;20218;-75
2023/04/30 03:27:00;;;;;;;0.00;0.00;;;;;;;;;;1734824;28;20212;-75
2023/04/30 03:27:52;;;;;;;0.00;0.00;;;;;;;;;;1737998;28;20257;-75
2023/04/30 03:28:43;;;;;;;0.05;0.05;;;;;;;;;;1738664;28;20272;-75
2023/04/30 03:29:35;;;;;;;0.10;0.10;;;;;;;;;;1741443;28;20203;-75
2023/04/30 03:30:26;;;;;;;0.00;0.00;;;;;;;;;;1736746;28;20237;-75
2023/04/30 03:31:18;;;;;;;0.00;0.00;;;;;;;;;;1743671;28;20237;-75
2023/04/30 03:32:09;;;;;;;0.00;0.00;;;;;;;;;;1736387;28;20611;-75
2023/04/30 03:33:05;;;;;;;0.00;0.00;;;;;;;;;;1738379;28;20207;-75
2023/04/30 03:33:56;;;;;;;0.10;0.10;;;;;;;;;;1738264;28;20219;-75
2023/04/30 03:34:48;;;;;;;0.00;0.00;;;;;;;;;;1734699;28;20200;-75
2023/04/30 03:35:39;;;;;;;0.00;0.00;;;;;;;;;;1734870;28;20326;-75
2023/04/30 03:36:31;;;;;;;0.03;0.03;;;;;;;;;;1731754;28;20211;-75
2023/04/30 03:37:22;;;;;;;0.00;0.00;;;;;;;;;;1737539;28;20617;-75
2023/04/30 03:38:14;;;;;;;0.00;0.00;;;;;;;;;;1738832;28;20238;-75
2023/04/30 03:39:05;;;;;;;0.10;0.10;;;;;;;;;;1739093;28;20211;-74
2023/04/30 03:39:57;;;;;;;0.10;0.10;;;;;;;;;;1734784;28;20531;-75
2023/04/30 03:40:48;;;;;;;0.10;0.10;;;;;;;;;;1737101;28;20288;-75
2023/04/30 03:41:40;;;;;;;0.00;0.00;;;;;;;;;;1739605;28;20290;-75
2023/04/30 03:42:31;;;;;;;0.10;0.10;;;;;;;;;;1738534;28;20211;-75
2023/04/30 03:43:22;;;;;;;0.00;0.00;;;;;;;;;;1738045;28;20286;-75
2023/04/30 03:44:14;;;;;;;0.00;0.00;;;;;;;;;;1738703;28;20264;-75
2023/04/30 03:45:06;;;;;;;0.10;0.10;;;;;;;;;;1732950;28;20212;-75
2023/04/30 03:45:58;;;;;;;0.00;0.00;;;;;;;;;;1739798;28;20229;-75
2023/04/30 03:46:49;;;;;;;0.10;0.10;;;;;;;;;;1737754;28;20216;-76
2023/04/30 03:47:42;;;;;;;0.00;0.00;;;;;;;;;;1738695;28;20249;-76
2023/04/30 03:48:35;;;;;;;0.00;0.00;;;;;;;;;;1738030;28;20207;-76
2023/04/30 03:49:27;;;;;;;0.00;0.00;;;;;;;;;;1737392;28;20214;-77
2023/04/30 03:50:18;;;;;;;0.00;0.00;;;;;;;;;;1732770;28;20265;-76
2023/04/30 03:51:10;;;;;;;0.00;0.00;;;;;;;;;;1742364;28;20595;-76
2023/04/30 03:52:02;;;;;;;0.10;0.10;;;;;;;;;;1736055;28;20199;-76
2023/04/30 03:52:54;;;;;;;0.00;0.00;;;;;;;;;;1738409;28;20200;-77
2023/04/30 03:53:45;;;;;;;0.00;0.00;;;;;;;;;;1738336;28;20585;-76
2023/04/30 03:54:37;;;;;;;0.00;0.00;;;;;;;;;;1738589;28;20538;-76
2023/04/30 03:55:28;;;;;;;0.00;0.00;;;;;;;;;;1732626;28;20307;-76
2023/04/30 03:56:20;;;;;;;0.10;0.10;;;;;;;;;;1743907;28;20588;-76
2023/04/30 03:57:12;;;;;;;0.15;0.15;;;;;;;;;;1736443;28;20263;-75
2023/04/30 03:58:04;;;;;;;0.10;0.10;;;;;;;;;;1738376;28;20210;-75
2023/04/30 03:58:55;;;;;;;0.00;0.00;;;;;;;;;;1737854;28;20215;-75
2023/04/30 03:59:47;;;;;;;0.00;0.00;;;;;;;;;;1737166;28;20270;-75
2023/04/30 04:00:40;;;;;;;0.00;0.00;;;;;;;;;;1734909;28;20227;-76
2023/04/30 04:01:32;;;;;;;0.10;0.10;;;;;;;;;;1731418;28;20282;-76
2023/04/30 04:02:24;;;;;;;0.05;0.05;;;;;;;;;;1737826;28;20644;-77
2023/04/30 04:03:16;;;;;;;0.00;0.00;;;;;;;;;;1738886;28;20286;-77
2023/04/30 04:04:08;;;;;;;0.00;0.00;;;;;;;;;;1738184;28;20211;-76
2023/04/30 04:05:03;;;;;;;0.00;0.00;;;;;;;;;;1733115;28;20625;-76
2023/04/30 04:05:54;;;;;;;0.10;0.10;;;;;;;;;;1738340;28;20614;-76
2023/04/30 04:06:46;;;;;;;0.00;0.00;;;;;;;;;;1738877;28;20196;-76
2023/04/30 04:07:37;;;;;;;0.20;0.20;;;;;;;;;;1741242;28;20528;-75
2023/04/30 04:08:30;;;;;;;0.00;0.00;;;;;;;;;;1743109;28;20524;-75
2023/04/30 04:09:21;;;;;;;0.00;0.00;;;;;;;;;;1737697;28;20281;-76
2023/04/30 04:10:13;;;;;;;0.00;0.00;;;;;;;;;;1732433;28;20269;-76
2023/04/30 04:11:04;;;;;;;0.00;0.00;;;;;;;;;;1741521;28;20203;-75
2023/04/30 04:11:56;;;;;;;0.05;0.05;;;;;;;;;;1737868;28;20614;-75
2023/04/30 04:12:48;;;;;;;0.03;0.03;;;;;;;;;;1742693;28;20210;-75
2023/04/30 04:13:40;;;;;;;0.00;0.00;;;;;;;;;;1741732;28;20235;-75
2023/04/30 04:14:31;;;;;;;0.00;0.00;;;;;;;;;;1741483;28;20223;-75
2023/04/30 04:15:23;;;;;;;0.00;0.00;;;;;;;;;;1736424;28;20183;-75
2023/04/30 04:16:14;;;;;;;0.00;0.00;;;;;;;;;;1737151;28;20233;-76
2023/04/30 04:17:06;;;;;;;0.00;0.00;;;;;;;;;;1736265;28;20269;-76
2023/04/30 04:17:58;;;;;;;0.00;0.00;;;;;;;;;;1738549;28;20621;-76
2023/04/30 04:18:50;;;;;;;0.00;0.00;;;;;;;;;;1739027;28;20219;-76
2023/04/30 04:19:42;;;;;;;0.00;0.00;;;;;;;;;;1738776;28;20558;-76
2023/04/30 04:20:34;;;;;;;0.10;0.10;;;;;;;;;;1735116;28;20243;-76
2023/04/30 04:21:25;;;;;;;0.00;0.00;;;;;;;;;;1738136;28;20264;-76
2023/04/30 04:22:17;;;;;;;0.10;0.10;;;;;;;;;;1737232;28;20224;-76
2023/04/30 04:23:08;;;;;;;0.00;0.00;;;;;;;;;;1739295;28;20215;-76
2023/04/30 04:24:07;;;;;;;0.00;0.00;;;;;;;;;;1736767;28;20200;-76
2023/04/30 04:24:58;;;;;;;0.10;0.10;;;;;;;;;;1738434;28;20464;-76
2023/04/30 04:25:50;;;;;;;0.00;0.00;;;;;;;;;;1735949;28;20438;-76
2023/04/30 04:26:41;;;;;;;0.00;0.00;;;;;;;;;;1735011;28;20219;-76
2023/04/30 04:27:33;;;;;;;0.00;0.00;;;;;;;;;;1738708;28;20227;-76
2023/04/30 04:28:25;;;;;;;0.00;0.00;;;;;;;;;;1738364;28;20268;-76
2023/04/30 04:29:17;;;;;;;0.00;0.00;;;;;;;;;;1741549;28;20202;-76
2023/04/30 04:30:08;;;;;;;0.00;0.00;;;;;;;;;;1733538;28;20207;-76
2023/04/30 04:31:02;;;;;;;0.00;0.00;;;;;;;;;;1738597;28;20227;-76
2023/04/30 04:31:54;;;;;;;0.00;0.00;;;;;;;;;;1738228;28;20242;-76
2023/04/30 04:32:49;;;;;;;0.00;0.00;;;;;;;;;;1738418;28;20203;-76
2023/04/30 04:33:40;;;;;;;0.08;0.08;;;;;;;;;;1738654;28;20941;-76
2023/04/30 04:34:32;;;;;;;0.00;0.00;;;;;;;;;;1739659;28;20525;-77
2023/04/30 04:35:24;;;;;;;0.00;0.00;;;;;;;;;;1733143;28;20524;-77
2023/04/30 04:36:16;;;;;;;0.00;0.00;;;;;;;;;;1737230;28;20192;-77
2023/04/30 04:37:07;;;;;;;0.10;0.10;;;;;;;;;;1737692;28;20211;-77
2023/04/30 04:38:00;;;;;;;0.00;0.00;;;;;;;;;;1733053;28;20236;-76
2023/04/30 04:38:51;;;;;;;0.00;0.00;;;;;;;;;;1735636;28;20220;-76
2023/04/30 04:39:43;;;;;;;0.00;0.00;;;;;;;;;;1738240;28;20530;-76
2023/04/30 04:40:36;;;;;;;0.00;0.00;;;;;;;;;;1733590;28;20584;-77
2023/04/30 04:41:28;;;;;;;0.00;0.00;;;;;;;;;;1737563;28;20290;-76
2023/04/30 04:42:19;;;;;;;0.00;0.00;;;;;;;;;;1737250;28;20350;-76
2023/04/30 04:43:11;;;;;;;0.03;0.03;;;;;;;;;;1732006;28;20228;-76
2023/04/30 04:44:02;;;;;;;0.03;0.03;;;;;;;;;;1735744;28;20245;-76
2023/04/30 04:44:54;;;;;;;0.00;0.00;;;;;;;;;;1733749;28;20200;-76
2023/04/30 04:45:46;;;;;;;0.00;0.00;;;;;;;;;;1735847;28;20270;-76
2023/04/30 04:46:40;;;;;;;0.00;0.00;;;;;;;;;;1742871;28;20210;-76
2023/04/30 04:47:32;;;;;;;0.10;0.10;;;;;;;;;;1736733;28;20711;-76
2023/04/30 04:48:24;;;;;;;0.00;0.00;;;;;;;;;;1731650;28;20212;-76
2023/04/30 04:49:15;;;;;;;0.00;0.00;;;;;;;;;;1740743;28;20203;-76
2023/04/30 04:50:07;;;;;;;0.00;0.00;;;;;;;;;;1733760;28;20576;-76
2023/04/30 04:51:00;;;;;;;0.00;0.00;;;;;;;;;;1738186;28;20227;-76
2023/04/30 04:51:52;;;;;;;0.00;0.00;;;;;;;;;;1737560;28;20215;-76
2023/04/30 04:52:43;;;;;;;0.00;0.00;;;;;;;;;;1734752;28;20261;-76
2023/04/30 04:53:35;;;;;;;0.00;0.00;;;;;;;;;;1733101;28;20204;-76
2023/04/30 04:54:26;;;;;;;0.00;0.00;;;;;;;;;;1736573;28;20212;-76
2023/04/30 04:55:18;;;;;;;0.10;0.10;;;;;;;;;;1732313;28;20200;-76
2023/04/30 04:56:09;;;;;;;0.00;0.00;;;;;;;;;;1741991;28;20222;-76
2023/04/30 04:57:02;;;;;;;0.00;0.00;;;;;;;;;;1739347;28;20664;-76
2023/04/30 04:57:53;;;;;;;0.00;0.00;;;;;;;;;;1738447;28;20203;-76
2023/04/30 04:58:46;;;;;;;0.00;0.00;;;;;;;;;;1738022;28;20298;-76
2023/04/30 04:59:37;;;;;;;0.00;0.00;;;;;;;;;;1738781;28;20254;-76
2023/04/30 05:00:29;;;;;;;0.00;0.00;;;;;;;;;;1732763;28;20266;-76
2023/04/30 05:01:20;;;;;;;0.10;0.10;;;;;;;;;;1743637;28;20468;-76
2023/04/30 05:02:12;;;;;;;0.00;0.00;;;;;;;;;;1735898;28;20228;-76
2023/04/30 05:03:03;;;;;;;0.00;0.00;;;;;;;;;;1736769;28;20211;-77
2023/04/30 05:03:55;;;;;;;0.10;0.10;;;;;;;;;;1737831;28;20505;-77
2023/04/30 05:04:49;;;;;;;0.00;0.00;;;;;;;;;;1734866;28;20599;-77
2023/04/30 05:05:41;;;;;;;0.00;0.00;;;;;;;;;;1734176;28;20398;-76
2023/04/30 05:06:33;;;;;;;0.00;0.00;;;;;;;;;;1743840;28;20224;-76
2023/04/30 05:07:25;;;;;;;0.00;0.00;;;;;;;;;;1737155;28;20583;-76
2023/04/30 05:08:16;;;;;;;0.03;0.03;;;;;;;;;;1731930;28;20208;-76
2023/04/30 05:09:08;;;;;;;0.00;0.00;;;;;;;;;;1734615;28;20213;-76
2023/04/30 05:10:01;;;;;;;0.10;0.10;;;;;;;;;;1724468;28;20220;-76
2023/04/30 05:10:53;;;;;;;0.00;0.00;;;;;;;;;;1726903;28;20228;-76
2023/04/30 05:11:47;;;;;;;0.00;0.00;;;;;;;;;;1725188;28;20216;-76
2023/04/30 05:12:39;;;;;;;0.00;0.00;;;;;;;;;;1728715;28;20200;-76
2023/04/30 05:13:30;;;;;;;0.00;0.00;;;;;;;;;;1724704;28;20594;-76
2023/04/30 05:14:22;;;;;;;0.00;0.00;;;;;;;;;;1727949;28;20201;-76